Airport ID:KN38
Update Time (UTC):13/04/2021 05:24
Wind Speed (Knots):6
Wind Direction (Magnetic):150
Temperature (°C):6
Dew Point (°C):6
Humidity (%):100
Altimeter (inHg):29.93
Density Altitude (Feet):
Visibility (Miles):4
Clouds (Hundreds of feet):OVC004
Present Weather:BR
METAR:METAR KN38 130520Z AUTO 14006KT 4SM BR OVC004 07/06 A2993 RMK AO2

The data displayed is for advisory purposes only and is not to be used for flight planning or operations.